Aérodrome :
LOGIN :

S'inscrire | Disclaimer

   EN    FR    IT 

 










Légende :    VFR   VFR Marginal   IFR   IFR Intensif   IFR Très Intensif
Visi : 
Plafond : 
>= 8 km
>= 3000ft
5 à 8 km
1000 à 3000 ft
1500m à 5 km
500 à 1000 ft
800 à 1500m
200 à 500 ft
< 800m
< 200 ft
Symboles :   Orages  Brouillard  Fortes neiges  Fortes précipitations  Vent > 20 kt
SIGMETs :   Divers  Orages  Givrage  Turbulence  Onde Orograph.  Cendres Volcan.






- Altitude de l'aérodrome : 17 ft
- Code IATA : RHO


LGRP - Diagoras

DERNIER METAR :
  • 272050Z VRB03KT 9999 -RA FEW018 BKN025 15/11 Q1018 NOSIG

METARs EXPIRÉS :
  • 272020Z 18004G14KT 130V230 9999 FEW018 BKN025 15/10 Q1018 NOSIG
  • 271950Z 13005KT 080V200 9999 FEW018 BKN025 15/10 Q1018 WS R06 NOSIG
  • 271920Z 10004KT 030V170 9999 FEW018 BKN025 15/10 Q1018 NOSIG
  • 271850Z 15006KT 100V180 9999 FEW018 BKN025 15/11 Q1018 NOSIG
  • 271820Z 18008G19KT 120V220 9999 FEW018 BKN025 15/10 Q1019 WS ALL RWY NOSIG
  • 271750Z 17004KT 100V220 9999 FEW018 BKN025 15/10 Q1019 NOSIG

TAF TAF LGRP
Valide du 27 à 18h jusqu'au 28 à 18h UTC


271700Z 2718/2818 18015KT 9999 FEW010 SCT025
PROB40
TEMPO 2718/2806 5000 RA FEW015 FEW018TCU BKN025
PROB30
TEMPO 2718/2809 4000 TSRA FEW010 FEW018CB BKN020
BECMG 2806/2808 28012KT



MET'MAP, la Météo Aéronautique d'un coup d'oeil ! - Copyright ORBIFLY Décembre 2007 - Disclaimer

ORBIFLY MET'MAP TEAM :

Programmation & Développement : Alexandra Zaïnal
Sur une idée originale de : Baudouin d'Aumeries
Assistance à la programmation : Marc-Olivier Méhu
Soutien technique & logistique : Manuel Goepfert

Contact : metmap@orbifly.com




SOURCES & CREDITS :

   NOAA